createdAt,value
2018-08-19T00:01:41.178Z,99.90
2018-08-19T00:03:46.332Z,99.90
2018-08-19T00:05:51.398Z,99.90
2018-08-19T00:07:56.600Z,99.90
2018-08-19T00:10:01.719Z,99.90
2018-08-19T00:12:07.032Z,99.90
2018-08-19T00:14:42.746Z,99.90
2018-08-19T00:16:47.816Z,99.90
2018-08-19T00:18:52.918Z,99.90
2018-08-19T00:20:58.796Z,99.90
2018-08-19T00:23:04.118Z,99.90
2018-08-19T00:25:10.814Z,99.90
2018-08-19T00:27:16.119Z,99.90
2018-08-19T00:29:26.419Z,99.90
2018-08-19T00:31:31.532Z,99.90
2018-08-19T00:33:36.798Z,99.90
2018-08-19T00:35:42.750Z,99.90
2018-08-19T00:37:48.061Z,99.90
2018-08-19T00:39:58.888Z,99.90
2018-08-19T00:42:05.183Z,99.90
2018-08-19T00:44:10.369Z,99.90
2018-08-19T00:46:26.828Z,99.90
2018-08-19T00:48:31.753Z,99.90
2018-08-19T00:50:36.917Z,99.90
2018-08-19T00:52:44.829Z,99.90
2018-08-19T00:54:49.742Z,99.90
2018-08-19T00:56:58.712Z,99.90
2018-08-19T00:59:04.426Z,99.90
2018-08-19T01:01:21.677Z,99.90
2018-08-19T01:03:26.517Z,99.90
2018-08-19T01:05:32.312Z,99.90
2018-08-19T01:07:37.819Z,99.90
2018-08-19T01:09:42.937Z,99.90
2018-08-19T01:11:48.221Z,99.90
2018-08-19T01:13:53.198Z,99.90
2018-08-19T01:15:58.256Z,99.90
2018-08-19T01:18:03.587Z,99.90
2018-08-19T01:20:09.483Z,99.90
2018-08-19T01:22:16.177Z,99.90
2018-08-19T01:24:21.889Z,99.90
2018-08-19T01:26:27.117Z,99.90
2018-08-19T01:28:32.804Z,99.90
2018-08-19T01:30:38.114Z,99.90
2018-08-19T01:32:43.258Z,99.90
2018-08-19T01:34:48.352Z,99.90
2018-08-19T01:36:53.396Z,99.90
2018-08-19T01:38:58.698Z,99.90
2018-08-19T01:41:03.705Z,99.90
2018-08-19T01:43:08.878Z,99.90
2018-08-19T01:45:14.178Z,99.90
2018-08-19T01:47:19.313Z,99.90
2018-08-19T01:49:24.300Z,99.90
2018-08-19T01:51:29.402Z,99.90
2018-08-19T01:53:34.304Z,99.90
2018-08-19T01:55:39.410Z,99.90
2018-08-19T01:57:45.930Z,99.90
2018-08-19T01:59:51.011Z,99.90
2018-08-19T02:02:03.698Z,99.90
2018-08-19T02:04:08.735Z,99.90
2018-08-19T02:06:13.762Z,99.90
2018-08-19T02:08:19.102Z,99.90
2018-08-19T02:10:25.484Z,99.90
2018-08-19T02:12:35.623Z,99.90
2018-08-19T02:14:40.471Z,99.90
2018-08-19T02:16:45.731Z,99.90
2018-08-19T02:18:50.580Z,99.90
2018-08-19T02:20:55.559Z,99.90
2018-08-19T02:23:01.747Z,99.90
2018-08-19T02:25:06.921Z,99.90
2018-08-19T02:27:12.772Z,99.90
2018-08-19T02:29:34.353Z,99.90
2018-08-19T02:31:39.494Z,99.90
2018-08-19T02:33:44.687Z,99.90
2018-08-19T02:36:00.749Z,99.90
2018-08-19T02:38:05.734Z,99.90
2018-08-19T02:40:17.694Z,99.90
2018-08-19T02:42:30.597Z,99.90
2018-08-19T02:44:35.748Z,99.90
2018-08-19T02:46:40.936Z,99.90
2018-08-19T02:48:50.785Z,99.90
2018-08-19T02:50:55.995Z,99.90
2018-08-19T02:53:01.289Z,99.90
2018-08-19T02:55:08.093Z,99.90
2018-08-19T02:57:13.504Z,99.90
2018-08-19T02:59:19.579Z,99.90
2018-08-19T03:01:24.781Z,99.90
2018-08-19T03:03:30.030Z,99.90
2018-08-19T03:05:35.716Z,99.90
2018-08-19T03:07:40.999Z,99.90
2018-08-19T03:09:46.493Z,99.90
2018-08-19T03:12:06.810Z,99.90
2018-08-19T03:14:12.011Z,99.90
2018-08-19T03:16:17.181Z,99.90
2018-08-19T03:18:22.369Z,99.90
2018-08-19T03:20:27.951Z,99.90
2018-08-19T03:22:33.022Z,99.90
2018-08-19T03:24:38.243Z,99.90
2018-08-19T03:26:43.604Z,99.90
2018-08-19T03:28:49.070Z,99.90
2018-08-19T03:30:59.246Z,99.90
2018-08-19T03:33:04.268Z,99.90
2018-08-19T03:35:13.387Z,99.90
2018-08-19T03:37:18.780Z,99.90
2018-08-19T03:39:24.814Z,99.90
2018-08-19T03:41:29.639Z,99.90
2018-08-19T03:43:34.674Z,99.90
2018-08-19T03:45:40.675Z,99.90
2018-08-19T03:47:45.841Z,99.90
2018-08-19T03:49:52.103Z,99.90
2018-08-19T03:51:57.244Z,99.90
2018-08-19T03:54:02.115Z,99.90
2018-08-19T03:56:07.832Z,99.90
2018-08-19T03:58:12.977Z,99.90
2018-08-19T04:00:19.243Z,99.90
2018-08-19T04:02:24.193Z,99.90
2018-08-19T04:04:29.232Z,99.90
2018-08-19T04:06:34.883Z,99.90
2018-08-19T04:08:46.017Z,99.90
2018-08-19T04:10:50.916Z,99.90
2018-08-19T04:12:55.846Z,99.90
2018-08-19T04:15:00.899Z,99.90
2018-08-19T04:17:07.212Z,99.90
2018-08-19T04:19:12.340Z,99.90
2018-08-19T04:21:18.266Z,99.90
2018-08-19T04:23:23.288Z,99.90
2018-08-19T04:25:33.666Z,99.90
2018-08-19T04:27:38.691Z,99.90
2018-08-19T04:29:43.825Z,99.90
2018-08-19T04:31:48.784Z,99.90
2018-08-19T04:33:54.849Z,99.90
2018-08-19T04:35:59.950Z,99.90
2018-08-19T04:38:04.879Z,99.90
2018-08-19T04:40:09.959Z,99.90
2018-08-19T04:42:15.176Z,99.90
2018-08-19T04:44:20.338Z,99.90
2018-08-19T04:46:25.477Z,99.90
2018-08-19T04:48:30.918Z,99.90
2018-08-19T04:50:35.830Z,99.90
2018-08-19T04:52:40.845Z,99.90
2018-08-19T04:54:45.886Z,99.90
2018-08-19T04:56:51.335Z,99.90
2018-08-19T04:58:58.483Z,99.90
2018-08-19T05:01:03.436Z,99.90
2018-08-19T05:03:08.331Z,99.90
2018-08-19T05:05:13.471Z,99.90
2018-08-19T05:07:18.575Z,99.90
2018-08-19T05:09:23.966Z,99.90
2018-08-19T05:11:36.346Z,99.90
2018-08-19T05:13:41.711Z,99.90
2018-08-19T05:15:46.956Z,99.90
2018-08-19T05:17:52.018Z,99.90
2018-08-19T05:20:16.518Z,99.90
2018-08-19T05:22:21.876Z,99.90
2018-08-19T05:24:26.906Z,99.90
2018-08-19T05:26:31.917Z,99.90
2018-08-19T05:28:36.762Z,99.90
2018-08-19T05:30:41.707Z,99.90
2018-08-19T05:32:50.599Z,99.90
2018-08-19T05:34:56.275Z,99.90
2018-08-19T05:37:02.765Z,99.90
2018-08-19T05:39:09.096Z,99.90
2018-08-19T05:41:13.969Z,99.90
2018-08-19T05:43:19.108Z,99.90
2018-08-19T05:45:24.212Z,99.90
2018-08-19T05:47:29.247Z,99.90
2018-08-19T05:49:36.854Z,99.90
2018-08-19T05:51:41.869Z,99.90
2018-08-19T05:53:51.939Z,99.90
2018-08-19T05:55:56.866Z,99.90
2018-08-19T05:58:01.888Z,99.90
2018-08-19T06:00:12.166Z,99.90
2018-08-19T06:02:18.075Z,99.90
2018-08-19T06:04:23.025Z,99.90
2018-08-19T06:06:27.902Z,99.90
2018-08-19T06:08:32.824Z,99.90
2018-08-19T06:10:37.815Z,99.90
2018-08-19T06:12:43.046Z,99.90
2018-08-19T06:14:47.995Z,99.90
2018-08-19T06:16:52.900Z,99.90
2018-08-19T06:18:57.929Z,99.90
2018-08-19T06:21:02.849Z,99.90
2018-08-19T06:23:08.149Z,99.90
2018-08-19T06:25:13.751Z,99.90
2018-08-19T06:27:18.783Z,99.90
2018-08-19T06:29:38.418Z,99.90
2018-08-19T06:31:43.494Z,99.90
2018-08-19T06:33:48.923Z,99.90
2018-08-19T06:35:54.184Z,99.90
2018-08-19T06:38:01.644Z,99.90
2018-08-19T06:40:11.368Z,99.90
2018-08-19T06:42:16.535Z,99.90
2018-08-19T06:44:21.782Z,99.90
2018-08-19T06:46:27.036Z,99.90
2018-08-19T06:48:32.911Z,99.90
2018-08-19T06:50:38.254Z,99.90
2018-08-19T06:52:43.547Z,99.90
2018-08-19T06:54:48.811Z,99.90
2018-08-19T06:56:55.370Z,99.90
2018-08-19T06:59:03.481Z,99.90
2018-08-19T07:01:11.683Z,99.90
2018-08-19T07:03:19.154Z,99.90
2018-08-19T07:05:27.711Z,99.90
2018-08-19T07:07:34.293Z,99.90
2018-08-19T07:09:40.550Z,99.90
2018-08-19T07:12:00.877Z,99.90
2018-08-19T07:14:06.482Z,99.90
2018-08-19T07:16:11.745Z,99.90
2018-08-19T07:18:22.338Z,99.90
2018-08-19T07:20:27.542Z,99.90
2018-08-19T07:22:34.057Z,99.50
2018-08-19T07:24:40.781Z,99.40
2018-08-19T07:29:01.047Z,98.70
2018-08-19T07:31:06.923Z,98.20
2018-08-19T07:33:13.488Z,97.20
2018-08-19T07:35:18.580Z,96.80
2018-08-19T07:37:23.535Z,95.70
2018-08-19T07:39:30.542Z,94.50
2018-08-19T07:41:36.357Z,94.30
2018-08-19T07:43:42.167Z,94.70
2018-08-19T07:45:47.597Z,94.50
2018-08-19T07:47:52.936Z,94.70
2018-08-19T07:49:58.911Z,94.80
2018-08-19T07:52:04.243Z,94.70
2018-08-19T07:54:09.277Z,94.50
2018-08-19T07:56:14.469Z,93.90
2018-08-19T07:58:36.904Z,94.30
2018-08-19T08:00:42.337Z,94.30
2018-08-19T08:02:47.450Z,94.00
2018-08-19T08:04:55.223Z,93.30
2018-08-19T08:07:02.506Z,93.30
2018-08-19T08:09:12.480Z,93.40
2018-08-19T08:11:17.914Z,94.00
2018-08-19T08:13:23.465Z,93.30
2018-08-19T08:15:28.677Z,93.50
2018-08-19T08:17:34.740Z,93.10
2018-08-19T08:19:46.756Z,93.10
2018-08-19T08:21:52.927Z,92.60
2018-08-19T08:23:58.888Z,93.10
2018-08-19T08:26:03.833Z,92.80
2018-08-19T08:28:09.815Z,92.80
2018-08-19T08:30:15.075Z,92.70
2018-08-19T08:32:20.196Z,92.60
2018-08-19T08:34:26.730Z,92.20
2018-08-19T08:36:31.630Z,92.40
2018-08-19T08:38:36.889Z,92.30
2018-08-19T08:40:42.572Z,92.60
2018-08-19T08:42:47.835Z,92.30
2018-08-19T08:44:52.911Z,92.80
2018-08-19T08:47:01.164Z,93.00
2018-08-19T08:49:06.404Z,93.00
2018-08-19T08:51:11.605Z,93.00
2018-08-19T08:53:16.936Z,92.70
2018-08-19T08:55:21.901Z,92.30
2018-08-19T08:57:28.127Z,91.70
2018-08-19T08:59:33.167Z,91.10
2018-08-19T09:01:38.191Z,90.10
2018-08-19T09:03:43.263Z,90.20
2018-08-19T09:05:48.523Z,89.30
2018-08-19T09:07:53.446Z,89.60
2018-08-19T09:09:58.916Z,90.40
2018-08-19T09:12:03.854Z,89.40
2018-08-19T09:14:08.926Z,88.90
2018-08-19T09:16:13.888Z,88.60
2018-08-19T09:18:18.966Z,88.60
2018-08-19T09:20:24.056Z,87.90
2018-08-19T09:22:30.128Z,87.50
2018-08-19T09:24:35.205Z,87.40
2018-08-19T09:26:40.171Z,87.10
2018-08-19T09:28:45.457Z,87.10
2018-08-19T09:30:52.597Z,86.50
2018-08-19T09:33:02.123Z,85.90
2018-08-19T09:35:07.139Z,84.90
2018-08-19T09:37:12.094Z,84.00
2018-08-19T09:39:17.295Z,85.00
2018-08-19T09:41:23.269Z,85.80
2018-08-19T09:43:28.631Z,86.30
2018-08-19T09:45:33.660Z,86.90
2018-08-19T09:47:38.775Z,88.00
2018-08-19T09:49:44.112Z,87.50
2018-08-19T09:51:53.979Z,87.30
2018-08-19T09:53:59.364Z,88.00
2018-08-19T09:56:09.286Z,88.30
2018-08-19T09:58:19.176Z,87.10
2018-08-19T10:00:27.435Z,87.10
2018-08-19T10:02:36.361Z,87.40
2018-08-19T10:04:41.176Z,86.90
2018-08-19T10:06:46.400Z,86.80
2018-08-19T10:08:51.345Z,86.00
2018-08-19T10:10:56.239Z,86.50
2018-08-19T10:13:01.165Z,87.10
2018-08-19T10:15:06.052Z,88.20
2018-08-19T10:17:11.333Z,86.80
2018-08-19T10:19:16.791Z,87.10
2018-08-19T10:21:21.803Z,87.10
2018-08-19T10:23:26.652Z,86.60
2018-08-19T10:25:31.513Z,86.40
2018-08-19T10:27:36.342Z,86.20
2018-08-19T10:29:41.247Z,85.60
2018-08-19T10:31:50.792Z,85.40
2018-08-19T10:33:55.918Z,85.30
2018-08-19T10:36:00.848Z,85.90
2018-08-19T10:38:06.269Z,86.50
2018-08-19T10:40:11.304Z,87.00
2018-08-19T10:42:24.242Z,87.20
2018-08-19T10:44:29.901Z,86.60
2018-08-19T10:46:34.886Z,86.50
2018-08-19T10:48:39.961Z,87.20
2018-08-19T10:50:45.002Z,87.30
2018-08-19T10:52:50.876Z,87.00
2018-08-19T10:54:57.840Z,86.00
2018-08-19T10:57:15.049Z,86.00
2018-08-19T10:59:21.341Z,86.10
2018-08-19T11:01:26.334Z,85.20
2018-08-19T11:03:32.942Z,85.20
2018-08-19T11:05:42.840Z,84.50
2018-08-19T11:07:48.628Z,84.50
2018-08-19T11:10:15.227Z,85.20
2018-08-19T11:12:20.592Z,84.40
2018-08-19T11:14:26.293Z,84.30
2018-08-19T11:16:31.301Z,84.70
2018-08-19T11:18:41.556Z,84.00
2018-08-19T11:20:49.662Z,84.10
2018-08-19T11:22:55.151Z,84.50
2018-08-19T11:25:00.146Z,83.70
2018-08-19T11:27:06.252Z,85.00
2018-08-19T11:29:11.156Z,84.10
2018-08-19T11:31:36.335Z,84.20
2018-08-19T11:33:43.426Z,84.20
2018-08-19T11:35:48.456Z,83.30
2018-08-19T11:37:53.643Z,83.80
2018-08-19T11:39:58.582Z,83.20
2018-08-19T11:42:03.484Z,83.60
2018-08-19T11:44:10.952Z,82.80
2018-08-19T11:46:16.440Z,82.10
2018-08-19T11:48:21.379Z,82.40
2018-08-19T11:50:26.402Z,81.90
2018-08-19T11:52:31.647Z,82.80
2018-08-19T11:54:36.619Z,83.20
2018-08-19T11:56:44.417Z,82.20
2018-08-19T11:58:49.316Z,80.80
2018-08-19T12:00:59.342Z,81.40
2018-08-19T12:03:04.223Z,80.40
2018-08-19T12:05:09.186Z,80.80
2018-08-19T12:07:14.173Z,81.70
2018-08-19T12:09:19.260Z,82.40
2018-08-19T12:11:30.274Z,80.50
2018-08-19T12:13:35.238Z,81.00
2018-08-19T12:15:40.117Z,80.10
2018-08-19T12:17:45.322Z,80.50
2018-08-19T12:19:50.515Z,81.00
2018-08-19T12:21:57.733Z,80.50
2018-08-19T12:24:31.442Z,79.10
2018-08-19T12:26:40.933Z,78.10
2018-08-19T12:28:46.520Z,78.90
2018-08-19T12:30:51.640Z,78.80
2018-08-19T12:33:13.173Z,78.50
2018-08-19T12:35:18.188Z,78.20
2018-08-19T12:37:24.439Z,78.00
2018-08-19T12:39:29.364Z,78.20
2018-08-19T12:41:42.936Z,77.50
2018-08-19T12:43:51.859Z,77.60
2018-08-19T12:46:00.808Z,77.90
2018-08-19T12:48:06.229Z,77.90
2018-08-19T12:50:15.046Z,77.40
2018-08-19T12:52:23.270Z,76.80
2018-08-19T12:54:28.212Z,76.80
2018-08-19T12:56:33.486Z,77.10
2018-08-19T12:58:39.549Z,78.20
2018-08-19T13:00:46.406Z,77.80
2018-08-19T13:02:52.814Z,76.40
2018-08-19T13:04:58.718Z,75.30
2018-08-19T13:07:14.732Z,75.70
2018-08-19T13:09:20.214Z,75.80
2018-08-19T13:11:25.177Z,75.30
2018-08-19T13:13:30.661Z,75.80
2018-08-19T13:15:35.777Z,74.90
2018-08-19T13:17:40.846Z,74.50
2018-08-19T13:19:54.977Z,74.60
2018-08-19T13:22:01.081Z,75.50
2018-08-19T13:24:06.181Z,75.40
2018-08-19T13:26:11.335Z,74.90
2018-08-19T13:32:01.941Z,74.80
2018-08-19T13:34:10.786Z,73.30
2018-08-19T13:36:18.477Z,72.60
2018-08-19T13:38:39.022Z,72.30
2018-08-19T13:40:47.553Z,72.80
2018-08-19T13:42:55.538Z,72.30
2018-08-19T13:45:05.888Z,72.60
2018-08-19T13:49:30.316Z,72.40
2018-08-19T13:51:35.177Z,73.60
2018-08-19T13:53:40.043Z,74.20
2018-08-19T13:55:45.038Z,73.70
2018-08-19T13:57:51.210Z,72.20
2018-08-19T13:59:56.227Z,71.20
2018-08-19T14:02:01.098Z,70.80
2018-08-19T14:04:06.161Z,71.10
2018-08-19T14:06:10.985Z,71.60
2018-08-19T14:08:15.863Z,70.50
2018-08-19T14:10:21.781Z,71.30
2018-08-19T14:12:26.590Z,70.00
2018-08-19T14:14:31.503Z,69.80
2018-08-19T14:16:36.498Z,69.70
2018-08-19T14:18:41.937Z,69.10
2018-08-19T14:20:46.875Z,68.80
2018-08-19T14:22:51.848Z,69.30
2018-08-19T14:24:56.677Z,68.90
2018-08-19T14:27:01.613Z,69.30
2018-08-19T14:29:06.620Z,69.20
2018-08-19T14:31:11.790Z,69.10
2018-08-19T14:33:16.874Z,70.40
2018-08-19T14:35:22.296Z,69.30
2018-08-19T14:37:28.167Z,68.50
2018-08-19T14:39:33.677Z,68.80
2018-08-19T14:41:38.712Z,69.20
2018-08-19T14:44:02.401Z,69.60
2018-08-19T14:46:07.553Z,70.20
2018-08-19T14:48:13.168Z,70.00
2018-08-19T14:50:20.631Z,70.40
2018-08-19T14:52:27.279Z,70.70
2018-08-19T14:54:32.266Z,71.20
2018-08-19T14:56:38.664Z,71.00
2018-08-19T14:58:46.045Z,70.30
2018-08-19T15:00:52.354Z,69.30
2018-08-19T15:02:57.293Z,68.90
2018-08-19T15:05:02.839Z,69.20
2018-08-19T15:07:08.313Z,69.30
2018-08-19T15:09:34.759Z,69.90
2018-08-19T15:11:40.081Z,70.50
2018-08-19T15:13:45.429Z,69.40
2018-08-19T15:15:50.362Z,70.10
2018-08-19T15:18:00.142Z,71.00
2018-08-19T15:20:05.190Z,69.30
2018-08-19T15:22:10.266Z,69.70
2018-08-19T15:24:15.425Z,69.60
2018-08-19T15:26:20.714Z,69.30
2018-08-19T15:28:25.764Z,69.90
2018-08-19T15:30:30.662Z,70.10
2018-08-19T15:32:36.108Z,69.00
2018-08-19T15:34:40.928Z,69.40
2018-08-19T15:36:46.059Z,69.10
2018-08-19T15:38:51.358Z,70.10
2018-08-19T15:40:56.419Z,69.30
2018-08-19T15:43:01.333Z,69.30
2018-08-19T15:45:06.414Z,68.90
2018-08-19T15:47:11.386Z,69.10
2018-08-19T15:49:16.867Z,69.10
2018-08-19T15:51:22.167Z,70.00
2018-08-19T15:53:28.431Z,69.90
2018-08-19T15:55:33.727Z,69.40
2018-08-19T15:57:38.977Z,69.90
2018-08-19T15:59:43.957Z,69.50
2018-08-19T16:01:49.304Z,68.00
2018-08-19T16:04:00.146Z,66.00
2018-08-19T16:06:05.274Z,65.00
2018-08-19T16:08:10.164Z,63.10
2018-08-19T16:10:16.233Z,62.40
2018-08-19T16:12:21.337Z,61.90
2018-08-19T16:14:28.172Z,60.70
2018-08-19T16:16:33.355Z,60.50
2018-08-19T16:18:38.272Z,60.50
2018-08-19T16:20:50.129Z,59.80
2018-08-19T16:22:55.022Z,60.10
2018-08-19T16:25:00.054Z,59.00
2018-08-19T16:27:05.524Z,58.50
2018-08-19T16:29:10.646Z,58.60
2018-08-19T16:31:15.560Z,59.50
2018-08-19T16:33:20.582Z,59.50
2018-08-19T16:35:27.069Z,59.10
2018-08-19T16:37:32.195Z,58.20
2018-08-19T16:39:37.189Z,58.10
2018-08-19T16:41:42.160Z,58.10
2018-08-19T16:43:47.313Z,58.20
2018-08-19T16:45:52.686Z,58.70
2018-08-19T16:47:57.537Z,59.50
2018-08-19T16:50:02.786Z,60.20
2018-08-19T16:52:07.643Z,60.80
2018-08-19T16:54:12.506Z,60.90
2018-08-19T16:56:20.285Z,62.30
2018-08-19T16:58:25.269Z,61.50
2018-08-19T17:00:31.150Z,62.10
2018-08-19T17:02:38.719Z,62.60
2018-08-19T17:04:45.492Z,62.80
2018-08-19T17:06:51.572Z,63.00
2018-08-19T17:08:56.658Z,62.60
2018-08-19T17:11:02.266Z,63.10
2018-08-19T17:13:07.333Z,64.10
2018-08-19T17:15:12.317Z,64.30
2018-08-19T17:17:17.353Z,63.90
2018-08-19T17:19:23.108Z,64.40
2018-08-19T17:21:29.106Z,64.90
2018-08-19T17:23:36.207Z,65.20
2018-08-19T17:25:41.789Z,66.50
2018-08-19T17:27:49.888Z,67.40
2018-08-19T17:29:55.304Z,67.90
2018-08-19T17:32:00.435Z,68.60
2018-08-19T17:34:14.570Z,69.10
2018-08-19T17:36:26.822Z,69.30
2018-08-19T17:38:34.415Z,69.80
2018-08-19T17:40:39.881Z,70.70
2018-08-19T17:42:46.399Z,70.10
2018-08-19T17:44:51.780Z,70.20
2018-08-19T17:46:58.394Z,71.90
2018-08-19T17:49:03.988Z,71.80
2018-08-19T17:51:26.598Z,72.00
2018-08-19T17:53:32.128Z,72.40
2018-08-19T17:55:37.072Z,73.20
2018-08-19T17:57:42.141Z,74.00
2018-08-19T17:59:48.404Z,74.00
2018-08-19T18:01:53.801Z,74.40
2018-08-19T18:03:58.683Z,74.80
2018-08-19T18:06:05.089Z,75.60
2018-08-19T18:08:11.194Z,76.30
2018-08-19T18:10:18.576Z,76.90
2018-08-19T18:12:25.636Z,76.70
2018-08-19T18:14:34.093Z,76.10
2018-08-19T18:16:41.155Z,76.60
2018-08-19T18:18:49.731Z,77.30
2018-08-19T18:20:57.694Z,78.10
2018-08-19T18:23:07.459Z,77.90
2018-08-19T18:25:18.151Z,78.00
2018-08-19T18:27:28.261Z,78.60
2018-08-19T18:29:49.049Z,78.80
2018-08-19T18:32:01.979Z,79.90
2018-08-19T18:34:20.267Z,80.00
2018-08-19T18:36:31.327Z,80.10
2018-08-19T18:38:44.876Z,80.60
2018-08-19T18:40:50.798Z,81.60
2018-08-19T18:42:57.608Z,81.10
2018-08-19T18:45:11.871Z,81.20
2018-08-19T18:47:22.093Z,81.50
2018-08-19T18:49:32.566Z,82.40
2018-08-19T18:51:42.745Z,82.50
2018-08-19T18:53:51.991Z,82.90
2018-08-19T18:56:03.187Z,83.80
2018-08-19T18:58:14.440Z,84.20
2018-08-19T19:00:26.228Z,84.30
2018-08-19T19:02:35.667Z,85.40
2018-08-19T19:04:46.381Z,85.90
2018-08-19T19:06:56.729Z,86.50
2018-08-19T19:09:06.206Z,86.30
2018-08-19T19:11:29.880Z,86.90
2018-08-19T19:13:51.489Z,87.10
2018-08-19T19:16:01.395Z,87.80
2018-08-19T19:18:14.334Z,87.80
2018-08-19T19:20:23.838Z,88.00
2018-08-19T19:22:34.429Z,88.50
2018-08-19T19:24:44.556Z,88.90
2018-08-19T19:26:55.814Z,89.60
2018-08-19T19:29:09.876Z,89.90
2018-08-19T19:31:32.555Z,90.00
2018-08-19T19:33:43.725Z,90.20
2018-08-19T19:36:01.866Z,90.30
2018-08-19T19:38:32.512Z,90.50
2018-08-19T19:40:47.402Z,90.70
2018-08-19T19:42:59.354Z,90.80
2018-08-19T19:45:10.411Z,90.80
2018-08-19T19:47:27.136Z,90.80
2018-08-19T19:49:45.051Z,90.90
2018-08-19T19:52:13.758Z,90.90
2018-08-19T19:54:39.597Z,90.80
2018-08-19T19:57:17.579Z,91.10
2018-08-19T19:59:31.963Z,91.10
2018-08-19T20:01:41.646Z,91.20
2018-08-19T20:04:11.467Z,91.30
2018-08-19T20:06:34.767Z,91.20
2018-08-19T20:08:44.255Z,91.40
2018-08-19T20:10:53.504Z,92.00
2018-08-19T20:13:02.178Z,91.80
2018-08-19T20:15:09.999Z,92.20
2018-08-19T20:17:21.292Z,92.40
2018-08-19T20:19:29.984Z,92.30
2018-08-19T20:21:37.146Z,92.30
2018-08-19T20:23:52.008Z,92.40
2018-08-19T20:26:05.051Z,92.40
2018-08-19T20:28:18.071Z,92.90
2018-08-19T20:30:31.300Z,93.40
2018-08-19T20:32:50.554Z,93.60
2018-08-19T20:35:05.918Z,93.40
2018-08-19T20:37:22.424Z,93.50
2018-08-19T20:39:43.493Z,93.90
2018-08-19T20:41:59.235Z,94.20
2018-08-19T20:44:16.830Z,94.60
2018-08-19T20:46:42.919Z,95.00
2018-08-19T20:48:54.778Z,95.10
2018-08-19T20:51:07.736Z,95.30
2018-08-19T20:53:21.757Z,95.60
2018-08-19T20:55:33.723Z,95.60
2018-08-19T20:57:47.127Z,96.00
2018-08-19T21:00:03.197Z,96.00
2018-08-19T21:02:16.273Z,96.30
2018-08-19T21:04:24.736Z,96.70
2018-08-19T21:06:33.524Z,97.00
2018-08-19T21:08:42.675Z,97.00
2018-08-19T21:10:49.790Z,97.30
2018-08-19T21:13:04.308Z,97.60
2018-08-19T21:15:13.203Z,97.70
2018-08-19T21:17:23.753Z,97.80
2018-08-19T21:19:39.662Z,98.10
2018-08-19T21:21:50.056Z,98.30
2018-08-19T21:23:59.581Z,98.30
2018-08-19T21:26:23.692Z,98.70
2018-08-19T21:28:30.934Z,98.70
2018-08-19T21:30:36.552Z,98.90
2018-08-19T21:32:45.063Z,99.00
2018-08-19T21:34:55.197Z,99.30
2018-08-19T21:37:04.396Z,99.30
2018-08-19T21:39:13.826Z,99.30
2018-08-19T21:41:19.103Z,99.10
2018-08-19T21:43:30.445Z,99.00
2018-08-19T21:45:37.618Z,99.00
2018-08-19T21:47:43.455Z,99.10
2018-08-19T21:50:10.773Z,99.10
2018-08-19T21:52:38.872Z,99.30
2018-08-19T21:55:01.577Z,99.40
2018-08-19T21:57:27.829Z,99.60
2018-08-19T21:59:32.614Z,99.60
2018-08-19T22:01:37.895Z,99.60
2018-08-19T22:03:50.029Z,99.40
2018-08-19T22:05:54.950Z,99.40
2018-08-19T22:07:59.981Z,99.40
2018-08-19T22:10:05.306Z,99.50
2018-08-19T22:12:10.240Z,99.30
2018-08-19T22:14:16.170Z,99.10
2018-08-19T22:16:21.230Z,99.00
2018-08-19T22:18:30.569Z,98.50
2018-08-19T22:20:36.674Z,98.40
2018-08-19T22:22:41.623Z,98.10
2018-08-19T22:24:46.571Z,98.20
2018-08-19T22:26:51.385Z,98.40
2018-08-19T22:29:14.278Z,98.40
2018-08-19T22:31:28.237Z,98.60
2018-08-19T22:33:33.112Z,98.40
2018-08-19T22:35:38.146Z,98.30
2018-08-19T22:37:43.223Z,98.20
2018-08-19T22:39:49.077Z,98.10
2018-08-19T22:41:53.912Z,98.30
2018-08-19T22:43:58.992Z,98.50
2018-08-19T22:46:03.996Z,98.40
2018-08-19T22:48:09.041Z,98.40
2018-08-19T22:50:13.914Z,98.50
2018-08-19T22:52:24.135Z,98.70
2018-08-19T22:56:48.991Z,98.90
2018-08-19T22:58:53.876Z,98.70
2018-08-19T23:00:59.262Z,98.60
2018-08-19T23:03:04.365Z,98.60
2018-08-19T23:05:09.188Z,98.70
2018-08-19T23:07:14.052Z,98.80
2018-08-19T23:09:19.100Z,98.90
2018-08-19T23:11:25.995Z,98.90
2018-08-19T23:15:54.631Z,98.90
2018-08-19T23:17:59.675Z,98.90
2018-08-19T23:20:04.694Z,98.60
2018-08-19T23:22:09.653Z,98.60
2018-08-19T23:24:14.498Z,98.70
2018-08-19T23:26:19.620Z,98.80
2018-08-19T23:28:25.159Z,98.80
2018-08-19T23:30:30.112Z,98.90
2018-08-19T23:32:35.141Z,98.90
2018-08-19T23:34:40.100Z,98.80
2018-08-19T23:36:45.423Z,98.70
2018-08-19T23:38:50.304Z,98.80
2018-08-19T23:40:55.494Z,98.90
2018-08-19T23:43:00.366Z,98.80
2018-08-19T23:45:05.869Z,98.60
2018-08-19T23:47:11.037Z,98.30
2018-08-19T23:49:16.070Z,97.70
2018-08-19T23:51:26.860Z,97.60
2018-08-19T23:53:31.800Z,98.00
2018-08-19T23:55:37.161Z,98.20
2018-08-19T23:57:42.006Z,97.90
2018-08-19T23:59:47.873Z,98.20
